Time;durP1;ratioP1;P1;durP2;ratioP2;P2;SDS_P1;SDS_P2;PMS_P1;PMS_P2;Temp;Humidity;BMP_temperature;BMP_pressure;BME280_temperature;BME280_humidity;BME280_pressure;Samples;Min_cycle;Max_cycle;Signal;HPM_P1;HPM_P2
2023/05/20 00:01:01;;;;;;;14.95;4.65;;;12.20;99.90;;;;;;5094728;28;20482;-58
2023/05/20 00:03:28;;;;;;;8.35;3.83;;;12.10;99.90;;;;;;5094224;28;20036;-58
2023/05/20 00:05:54;;;;;;;13.73;5.18;;;12.10;99.90;;;;;;5094341;28;20047;-58
2023/05/20 00:08:19;;;;;;;12.98;4.78;;;12.10;99.90;;;;;;5094333;28;20032;-58
2023/05/20 00:10:45;;;;;;;12.10;4.57;;;12.10;99.90;;;;;;5094429;28;20043;-58
2023/05/20 00:13:11;;;;;;;11.35;4.82;;;12.10;99.90;;;;;;5094268;28;20036;-58
2023/05/20 00:15:36;;;;;;;13.93;4.70;;;12.10;99.90;;;;;;5094087;28;20500;-58
2023/05/20 00:18:03;;;;;;;8.77;4.13;;;12.10;99.90;;;;;;5094297;28;20032;-59
2023/05/20 00:20:29;;;;;;;11.88;4.60;;;12.10;99.90;;;;;;5094008;28;20043;-59
2023/05/20 00:22:54;;;;;;;10.65;4.50;;;12.10;99.90;;;;;;5094214;28;20039;-58
2023/05/20 00:25:20;;;;;;;13.15;4.22;;;12.10;99.90;;;;;;5094245;28;20119;-58
2023/05/20 00:27:46;;;;;;;13.13;4.88;;;12.10;99.90;;;;;;5094152;28;20048;-58
2023/05/20 00:30:12;;;;;;;15.02;5.22;;;12.00;99.90;;;;;;5094250;28;20039;-58
2023/05/20 00:32:38;;;;;;;10.95;4.47;;;12.00;99.90;;;;;;5093561;28;20525;-58
2023/05/20 00:35:04;;;;;;;8.77;4.18;;;12.00;99.90;;;;;;5086612;28;20180;-59
2023/05/20 00:37:30;;;;;;;13.32;4.20;;;11.90;99.90;;;;;;5093553;28;20035;-59
2023/05/20 00:39:56;;;;;;;9.68;4.85;;;11.90;99.90;;;;;;5087493;28;20040;-58
2023/05/20 00:42:23;;;;;;;8.05;4.40;;;11.90;99.90;;;;;;5085741;28;20440;-58
2023/05/20 00:44:49;;;;;;;16.40;5.35;;;11.90;99.90;;;;;;5093833;28;20040;-58
2023/05/20 00:47:16;;;;;;;14.60;4.93;;;11.80;99.90;;;;;;5093502;28;20028;-59
2023/05/20 00:49:43;;;;;;;11.63;5.40;;;11.80;99.90;;;;;;5093558;28;20036;-58
2023/05/20 00:52:10;;;;;;;10.25;4.95;;;11.80;99.90;;;;;;5081178;28;20052;-59
2023/05/20 00:54:35;;;;;;;9.85;4.68;;;11.80;99.90;;;;;;5093796;28;20040;-58
2023/05/20 00:57:04;;;;;;;13.43;4.30;;;11.80;99.90;;;;;;5093558;28;20046;-58
2023/05/20 00:59:29;;;;;;;13.73;4.85;;;11.80;99.90;;;;;;5093271;28;20482;-58
2023/05/20 01:01:55;;;;;;;12.45;4.43;;;11.80;99.90;;;;;;5093542;28;20040;-58
2023/05/20 01:04:21;;;;;;;10.32;4.50;;;11.80;99.90;;;;;;5093284;28;20062;-59
2023/05/20 01:06:48;;;;;;;10.95;4.28;;;11.80;99.90;;;;;;5092186;28;20535;-58
2023/05/20 01:09:14;;;;;;;9.27;4.80;;;11.80;99.90;;;;;;5079008;28;20055;-58
2023/05/20 01:12:01;;;;;;;8.55;4.22;;;11.80;99.90;;;;;;5093187;28;20115;-59
2023/05/20 01:14:31;;;;;;;10.75;4.45;;;11.80;99.90;;;;;;5093148;28;20036;-59
2023/05/20 01:17:08;;;;;;;10.30;4.03;;;11.80;99.90;;;;;;5093261;28;20032;-58
2023/05/20 01:19:44;;;;;;;9.70;4.10;;;11.70;99.90;;;;;;5093144;28;20044;-59
2023/05/20 01:22:11;;;;;;;11.07;3.97;;;11.70;99.90;;;;;;5092659;28;20047;-59
2023/05/20 01:24:44;;;;;;;11.20;4.38;;;11.70;99.90;;;;;;5090311;28;20036;-58
2023/05/20 01:27:12;;;;;;;11.77;4.47;;;11.70;99.90;;;;;;5093318;28;20036;-59
2023/05/20 01:29:39;;;;;;;11.75;4.75;;;11.70;99.90;;;;;;5092839;28;20114;-59
2023/05/20 01:32:27;;;;;;;12.13;4.72;;;11.70;99.90;;;;;;5092661;28;20541;-58
2023/05/20 01:34:53;;;;;;;12.85;5.78;;;11.70;99.90;;;;;;5092754;28;20122;-58
2023/05/20 01:37:21;;;;;;;9.65;4.15;;;11.70;99.90;;;;;;5092899;28;20028;-59
2023/05/20 01:39:48;;;;;;;8.40;4.20;;;11.70;99.90;;;;;;5092473;28;20516;-58
2023/05/20 01:42:16;;;;;;;9.20;4.30;;;11.60;99.90;;;;;;5086407;28;20063;-59
2023/05/20 01:44:42;;;;;;;10.15;4.28;;;11.60;99.90;;;;;;5085066;28;20040;-59
2023/05/20 01:47:08;;;;;;;14.00;5.10;;;11.60;99.90;;;;;;5092617;28;20035;-58
2023/05/20 01:49:33;;;;;;;7.57;3.42;;;11.60;99.90;;;;;;5092271;28;20036;-59
2023/05/20 01:51:59;;;;;;;9.10;4.30;;;11.60;99.90;;;;;;5091505;28;20109;-58
2023/05/20 01:54:25;;;;;;;10.70;4.57;;;11.60;99.90;;;;;;5092461;28;20116;-58
2023/05/20 01:56:51;;;;;;;12.13;4.75;;;11.60;99.90;;;;;;5092460;28;20043;-59
2023/05/20 01:59:16;;;;;;;10.70;3.63;;;11.60;99.90;;;;;;5092686;28;20036;-58
2023/05/20 02:01:42;;;;;;;9.95;4.45;;;11.60;99.90;;;;;;5092509;28;20048;-58
2023/05/20 02:04:08;;;;;;;12.27;4.95;;;11.60;99.90;;;;;;5092369;28;20035;-58
2023/05/20 02:06:34;;;;;;;8.82;4.43;;;11.50;99.90;;;;;;5092401;28;20047;-58
2023/05/20 02:08:59;;;;;;;9.07;4.10;;;11.50;99.90;;;;;;5092277;28;20115;-58
2023/05/20 02:11:25;;;;;;;8.95;4.10;;;11.40;99.90;;;;;;5091963;28;20038;-59
2023/05/20 02:13:51;;;;;;;11.05;3.67;;;11.40;99.90;;;;;;5092327;28;20032;-59
2023/05/20 02:16:17;;;;;;;12.70;4.05;;;11.40;99.90;;;;;;5092094;28;20493;-58
2023/05/20 02:18:42;;;;;;;9.60;4.40;;;11.40;99.90;;;;;;5092355;28;20051;-58
2023/05/20 02:21:08;;;;;;;8.88;3.97;;;11.40;99.90;;;;;;5091960;28;20082;-58
2023/05/20 02:23:34;;;;;;;10.05;3.85;;;11.40;99.90;;;;;;5091807;28;20044;-58
2023/05/20 02:26:00;;;;;;;14.20;4.32;;;11.40;99.90;;;;;;5091878;28;20040;-58
2023/05/20 02:28:26;;;;;;;9.55;4.63;;;11.30;99.90;;;;;;5092130;28;20036;-58
2023/05/20 02:30:51;;;;;;;7.75;4.47;;;11.40;99.90;;;;;;5091857;28;20118;-58
2023/05/20 02:33:18;;;;;;;12.43;3.88;;;11.30;99.90;;;;;;5091686;28;20386;-58
2023/05/20 02:35:44;;;;;;;7.65;5.00;;;11.30;99.90;;;;;;5091834;28;20040;-59
2023/05/20 02:38:10;;;;;;;9.55;4.10;;;11.30;99.90;;;;;;5091949;28;20035;-59
2023/05/20 02:40:36;;;;;;;10.48;4.30;;;11.30;99.90;;;;;;5092222;28;20062;-58
2023/05/20 02:43:02;;;;;;;11.57;4.22;;;11.20;99.90;;;;;;5079468;28;20474;-58
2023/05/20 02:45:27;;;;;;;11.18;4.75;;;11.20;99.90;;;;;;5090330;28;20051;-58
2023/05/20 02:47:53;;;;;;;9.35;4.78;;;11.20;99.90;;;;;;5091770;28;20040;-58
2023/05/20 02:50:18;;;;;;;13.75;4.75;;;11.10;99.90;;;;;;5091714;28;20040;-58
2023/05/20 02:52:45;;;;;;;9.95;4.25;;;11.20;99.90;;;;;;5091512;28;20044;-58
2023/05/20 02:55:11;;;;;;;8.60;4.22;;;11.20;99.90;;;;;;5091837;28;20036;-59
2023/05/20 02:57:37;;;;;;;12.57;4.38;;;11.10;99.90;;;;;;5092000;28;20036;-58
2023/05/20 03:00:09;;;;;;;8.00;3.78;;;11.10;99.90;;;;;;5091752;28;20428;-58
2023/05/20 03:02:35;;;;;;;9.50;3.50;;;11.10;99.90;;;;;;5093146;28;20043;-58
2023/05/20 03:05:01;;;;;;;7.80;3.55;;;11.10;99.90;;;;;;5095679;28;20065;-59
2023/05/20 03:07:27;;;;;;;9.73;4.20;;;11.10;99.90;;;;;;5095570;28;20020;-58
2023/05/20 03:09:52;;;;;;;7.83;4.00;;;11.10;99.90;;;;;;5095710;28;20036;-58
2023/05/20 03:12:18;;;;;;;7.50;3.35;;;11.10;99.90;;;;;;5095467;28;20557;-58
2023/05/20 03:14:44;;;;;;;6.22;3.60;;;11.10;99.90;;;;;;5095624;28;20040;-58
2023/05/20 03:17:10;;;;;;;10.30;4.07;;;11.10;99.90;;;;;;5094652;28;20067;-58
2023/05/20 03:19:36;;;;;;;6.30;3.45;;;11.20;99.90;;;;;;5095789;28;20032;-58
2023/05/20 03:22:02;;;;;;;6.18;3.80;;;11.10;99.90;;;;;;5095451;28;20397;-59
2023/05/20 03:24:28;;;;;;;6.72;3.55;;;11.20;99.90;;;;;;5095022;28;20035;-58
2023/05/20 03:26:54;;;;;;;7.63;3.03;;;11.20;99.90;;;;;;5095583;28;20043;-59
2023/05/20 03:29:21;;;;;;;5.93;3.55;;;11.20;99.90;;;;;;5095065;28;20044;-58
2023/05/20 03:31:47;;;;;;;9.60;3.97;;;11.10;99.90;;;;;;5094923;28;20486;-59
2023/05/20 03:34:13;;;;;;;5.47;3.00;;;11.10;99.90;;;;;;5095243;28;20043;-59
2023/05/20 03:36:38;;;;;;;4.63;3.15;;;11.10;99.90;;;;;;5093604;28;20051;-58
2023/05/20 03:39:04;;;;;;;4.28;3.03;;;11.10;99.90;;;;;;5095118;28;20043;-58
2023/05/20 03:41:30;;;;;;;9.55;2.88;;;11.10;99.90;;;;;;5095094;28;20056;-58
2023/05/20 03:43:56;;;;;;;9.95;2.90;;;11.10;99.90;;;;;;5095034;28;20042;-58
2023/05/20 03:46:21;;;;;;;5.93;2.78;;;11.00;99.90;;;;;;5094767;28;20111;-59
2023/05/20 03:48:47;;;;;;;4.90;2.95;;;11.10;99.90;;;;;;5094736;28;20040;-59
2023/05/20 03:51:13;;;;;;;7.00;3.03;;;11.00;99.90;;;;;;5094482;28;20048;-59
2023/05/20 03:53:38;;;;;;;7.13;2.75;;;11.10;99.90;;;;;;5094839;28;20371;-58
2023/05/20 03:56:04;;;;;;;4.45;2.85;;;11.00;99.90;;;;;;5094800;28;20032;-58
2023/05/20 03:58:30;;;;;;;7.55;2.78;;;11.10;99.90;;;;;;5093354;28;20044;-58
2023/05/20 04:00:56;;;;;;;7.72;2.70;;;11.10;99.90;;;;;;5094610;28;20032;-58
2023/05/20 04:03:22;;;;;;;12.40;3.08;;;11.10;99.90;;;;;;5094728;28;20530;-59
2023/05/20 04:05:48;;;;;;;4.40;2.40;;;11.10;99.90;;;;;;5094026;28;20150;-58
2023/05/20 04:08:14;;;;;;;5.65;2.65;;;11.10;99.90;;;;;;5084623;28;20040;-59
2023/05/20 04:10:43;;;;;;;4.93;2.58;;;11.20;99.90;;;;;;5094516;28;20112;-58
2023/05/20 04:13:09;;;;;;;;;;;11.20;99.90;;;;;;5094460;28;20086;-59
2023/05/20 04:15:35;;;;;;;3.65;2.38;;;11.30;99.90;;;;;;5094369;28;19916;-58
2023/05/20 04:18:01;;;;;;;5.47;2.20;;;11.20;99.90;;;;;;5094290;28;20043;-58
2023/05/20 04:20:27;;;;;;;3.60;2.33;;;11.30;99.90;;;;;;5094151;28;20402;-58
2023/05/20 04:22:53;;;;;;;4.55;2.45;;;11.30;99.90;;;;;;5094062;28;20036;-58
2023/05/20 04:25:19;;;;;;;4.05;2.15;;;11.40;99.90;;;;;;5092905;28;20035;-58
2023/05/20 04:27:45;;;;;;;4.00;1.98;;;11.30;99.90;;;;;;5093874;28;20042;-58
2023/05/20 04:30:11;;;;;;;4.05;2.03;;;11.40;99.90;;;;;;5094022;28;20032;-58
2023/05/20 04:32:37;;;;;;;7.32;2.50;;;11.50;99.90;;;;;;5093817;28;20123;-58
2023/05/20 04:35:07;;;;;;;2.67;2.00;;;11.50;99.90;;;;;;5093810;28;20111;-58
2023/05/20 04:37:33;;;;;;;5.13;2.28;;;11.50;99.90;;;;;;5093886;28;20044;-58
2023/05/20 04:40:03;;;;;;;8.07;2.67;;;11.50;99.90;;;;;;5092686;28;20042;-58
2023/05/20 04:42:29;;;;;;;5.03;2.08;;;11.60;99.90;;;;;;5085534;28;20037;-58
2023/05/20 04:44:54;;;;;;;7.72;2.60;;;11.60;99.90;;;;;;5087654;28;20111;-58
2023/05/20 04:47:20;;;;;;;3.20;2.00;;;11.60;99.90;;;;;;5093563;28;20036;-58
2023/05/20 04:49:45;;;;;;;6.28;2.10;;;11.70;99.90;;;;;;5093941;28;20039;-58
2023/05/20 04:52:11;;;;;;;3.45;2.28;;;11.80;99.90;;;;;;5093235;28;20052;-58
2023/05/20 04:54:37;;;;;;;3.35;1.90;;;11.80;99.90;;;;;;5093527;28;20393;-59
2023/05/20 04:57:03;;;;;;;5.97;2.22;;;11.80;99.90;;;;;;5093171;28;20028;-58
2023/05/20 04:59:28;;;;;;;2.95;1.95;;;11.90;99.90;;;;;;5093312;28;20043;-59
2023/05/20 05:01:54;;;;;;;4.38;2.15;;;11.90;99.90;;;;;;5093211;28;20047;-58
2023/05/20 05:04:20;;;;;;;2.10;1.45;;;11.90;99.90;;;;;;5093246;28;20035;-58
2023/05/20 05:06:47;;;;;;;4.95;2.40;;;11.90;99.90;;;;;;5093389;28;20410;-58
2023/05/20 05:09:13;;;;;;;4.85;1.80;;;11.90;99.90;;;;;;5093162;28;20127;-58
2023/05/20 05:11:38;;;;;;;5.82;2.30;;;12.00;99.90;;;;;;5093114;28;20466;-58
2023/05/20 05:14:04;;;;;;;3.90;1.80;;;12.00;99.90;;;;;;5093173;28;20040;-58
2023/05/20 05:16:30;;;;;;;5.10;2.13;;;12.00;99.90;;;;;;5093354;28;20036;-58
2023/05/20 05:18:55;;;;;;;6.68;1.60;;;12.10;99.90;;;;;;5093028;28;20111;-58
2023/05/20 05:21:21;;;;;;;3.45;1.45;;;12.10;99.90;;;;;;5087510;28;20051;-58
2023/05/20 05:23:47;;;;;;;3.75;1.63;;;12.00;99.90;;;;;;5092834;28;20393;-58
2023/05/20 05:26:12;;;;;;;2.80;1.73;;;12.10;99.90;;;;;;5092882;28;20386;-58
2023/05/20 05:28:41;;;;;;;3.25;1.70;;;12.10;99.90;;;;;;5092839;28;20039;-59
2023/05/20 05:31:07;;;;;;;4.50;1.70;;;12.30;99.90;;;;;;5092630;28;20485;-58
2023/05/20 05:33:32;;;;;;;3.60;1.50;;;12.30;99.90;;;;;;5093189;28;20036;-59
2023/05/20 05:35:59;;;;;;;6.28;1.73;;;12.40;99.90;;;;;;5092282;28;20079;-58
2023/05/20 05:38:25;;;;;;;3.60;1.83;;;12.50;99.90;;;;;;5092920;28;20036;-58
2023/05/20 05:40:51;;;;;;;3.13;1.52;;;12.70;99.90;;;;;;5092706;28;20375;-58
2023/05/20 05:43:16;;;;;;;6.72;1.55;;;12.90;99.90;;;;;;5091998;28;20051;-59
2023/05/20 05:45:42;;;;;;;3.80;1.60;;;13.10;99.90;;;;;;5092607;28;20075;-58
2023/05/20 05:48:08;;;;;;;3.88;1.40;;;13.40;99.90;;;;;;5091457;28;20076;-58
2023/05/20 05:50:33;;;;;;;4.55;1.50;;;13.50;99.90;;;;;;5092173;28;20040;-58
2023/05/20 05:52:59;;;;;;;2.63;1.48;;;13.70;99.90;;;;;;5092384;28;20114;-58
2023/05/20 05:55:25;;;;;;;3.00;1.60;;;13.80;99.90;;;;;;5092598;28;20051;-58
2023/05/20 05:57:51;;;;;;;3.03;1.38;;;13.90;99.90;;;;;;5092338;28;20063;-59
2023/05/20 06:00:17;;;;;;;4.80;1.60;;;13.90;99.90;;;;;;5092139;28;20071;-59
2023/05/20 06:02:43;;;;;;;5.13;1.20;;;14.00;99.90;;;;;;5092748;28;20510;-59
2023/05/20 06:05:09;;;;;;;5.80;1.48;;;14.10;99.90;;;;;;5092558;28;20036;-59
2023/05/20 06:07:35;;;;;;;2.53;1.20;;;14.20;99.90;;;;;;5091382;28;20122;-58
2023/05/20 06:10:00;;;;;;;2.65;1.33;;;14.30;99.90;;;;;;5091981;28;20474;-58
2023/05/20 06:12:26;;;;;;;3.75;1.60;;;14.40;99.90;;;;;;5092272;28;20439;-58
2023/05/20 06:14:52;;;;;;;4.03;1.40;;;14.60;99.90;;;;;;5092137;28;20517;-58
2023/05/20 06:17:17;;;;;;;3.63;1.50;;;14.60;99.90;;;;;;5092145;28;20378;-58
2023/05/20 06:19:43;;;;;;;2.00;1.20;;;14.60;99.90;;;;;;5092277;28;20060;-58
2023/05/20 06:22:08;;;;;;;3.50;1.20;;;14.70;99.90;;;;;;5092380;28;20072;-58
2023/05/20 06:24:34;;;;;;;4.07;1.42;;;14.80;99.90;;;;;;5091897;28;20551;-58
2023/05/20 06:27:00;;;;;;;4.10;1.50;;;15.10;99.90;;;;;;5092050;28;20457;-58
2023/05/20 06:29:26;;;;;;;2.33;1.10;;;15.20;99.90;;;;;;5091981;28;20063;-58
2023/05/20 06:31:51;;;;;;;1.52;1.10;;;15.20;99.90;;;;;;5092195;28;20524;-58
2023/05/20 06:34:17;;;;;;;1.52;1.05;;;15.10;99.90;;;;;;5091911;28;20028;-59
2023/05/20 06:36:42;;;;;;;3.40;1.48;;;15.30;99.90;;;;;;5094764;28;20075;-59
2023/05/20 06:39:11;;;;;;;2.50;1.05;;;15.30;99.90;;;;;;5093702;28;20550;-58
2023/05/20 06:41:38;;;;;;;2.47;1.27;;;15.50;99.90;;;;;;5094589;27;20047;-59
2023/05/20 06:44:05;;;;;;;3.65;1.27;;;15.50;99.90;;;;;;5085729;28;20044;-59
2023/05/20 06:46:30;;;;;;;6.43;1.38;;;15.70;99.90;;;;;;5098248;28;20070;-59
2023/05/20 06:48:56;;;;;;;2.08;1.15;;;15.60;99.90;;;;;;5097533;28;20062;-59
2023/05/20 06:51:22;;;;;;;3.35;1.10;;;15.60;99.90;;;;;;5098459;28;20052;-59
2023/05/20 06:53:48;;;;;;;3.80;1.40;;;15.50;99.90;;;;;;5098798;28;20827;-59
2023/05/20 06:56:13;;;;;;;3.65;1.30;;;15.70;99.90;;;;;;5098702;28;20081;-59
2023/05/20 06:58:40;;;;;;;3.78;1.33;;;15.80;99.90;;;;;;5097764;28;20067;-58
2023/05/20 07:01:05;;;;;;;3.78;1.08;;;15.90;99.90;;;;;;5098944;28;20064;-58
2023/05/20 07:03:31;;;;;;;3.70;1.40;;;16.30;99.90;;;;;;5098759;28;20444;-59
2023/05/20 07:05:57;;;;;;;4.78;1.33;;;16.70;99.90;;;;;;5098622;28;20036;-59
2023/05/20 07:08:23;;;;;;;2.85;0.98;;;16.90;99.90;;;;;;5086984;28;20074;-59
2023/05/20 07:10:49;;;;;;;2.72;1.65;;;16.80;99.90;;;;;;5078230;28;20037;-59
2023/05/20 07:13:14;;;;;;;6.35;1.20;;;17.10;99.90;;;;;;5078264;28;20039;-59
2023/05/20 07:15:40;;;;;;;2.50;1.10;;;17.00;99.90;;;;;;5078544;28;20107;-58
2023/05/20 07:18:06;;;;;;;3.38;1.38;;;17.10;99.90;;;;;;5084979;28;20079;-59
2023/05/20 07:20:31;;;;;;;1.45;1.00;;;17.10;99.90;;;;;;5079904;28;20166;-58
2023/05/20 07:22:57;;;;;;;1.67;0.90;;;17.30;99.90;;;;;;5076970;28;20040;-59
2023/05/20 07:25:22;;;;;;;3.95;1.15;;;17.40;99.90;;;;;;5081314;28;20033;-59
2023/05/20 07:27:48;;;;;;;3.92;1.20;;;17.30;99.90;;;;;;5078014;28;20463;-59
2023/05/20 07:30:14;;;;;;;5.90;1.33;;;17.30;99.90;;;;;;5081950;28;20068;-59
2023/05/20 07:32:39;;;;;;;4.43;1.38;;;17.50;99.90;;;;;;5078315;28;20105;-59
2023/05/20 07:35:05;;;;;;;2.38;1.08;;;17.70;99.90;;;;;;5078451;28;20097;-59
2023/05/20 07:37:31;;;;;;;2.90;1.00;;;18.00;99.90;;;;;;5078043;28;20025;-59
2023/05/20 07:39:56;;;;;;;4.55;1.45;;;18.20;99.90;;;;;;5078068;28;20163;-59
2023/05/20 07:42:22;;;;;;;2.42;1.20;;;18.30;99.90;;;;;;5077989;28;20044;-59
2023/05/20 07:44:48;;;;;;;2.83;1.10;;;18.10;99.90;;;;;;5091555;28;20439;-59
2023/05/20 07:47:13;;;;;;;1.45;1.00;;;18.30;99.90;;;;;;5097828;28;20449;-59
2023/05/20 07:49:39;;;;;;;3.50;1.05;;;18.60;99.90;;;;;;5093914;28;20051;-59
2023/05/20 07:52:05;;;;;;;4.82;1.30;;;18.80;99.90;;;;;;5094662;28;20052;-59
2023/05/20 07:54:30;;;;;;;2.40;1.20;;;19.10;99.90;;;;;;5094975;28;20079;-59
2023/05/20 07:56:56;;;;;;;3.83;1.80;;;19.20;99.90;;;;;;5091356;28;20455;-59
2023/05/20 07:59:23;;;;;;;2.92;1.63;;;18.90;99.90;;;;;;5086627;28;20403;-59
2023/05/20 08:01:48;;;;;;;6.43;1.58;;;19.20;99.90;;;;;;5080543;28;20040;-59
2023/05/20 08:04:14;;;;;;;2.22;1.15;;;19.70;99.90;;;;;;5088530;28;20085;-59
2023/05/20 08:06:40;;;;;;;4.82;1.25;;;19.80;99.90;;;;;;5084424;28;20040;-59
2023/05/20 08:09:06;;;;;;;1.77;1.20;;;19.70;99.90;;;;;;5083642;28;20070;-59
2023/05/20 08:11:32;;;;;;;3.35;1.20;;;19.90;99.90;;;;;;5077762;28;20131;-60
2023/05/20 08:13:58;;;;;;;2.20;1.52;;;20.00;99.90;;;;;;5077214;28;20107;-60
2023/05/20 08:16:23;;;;;;;3.80;1.30;;;19.80;99.90;;;;;;5083665;28;20814;-60
2023/05/20 08:18:49;;;;;;;4.75;1.20;;;19.90;99.90;;;;;;5088125;28;20032;-60
2023/05/20 08:21:14;;;;;;;5.38;1.33;;;19.70;99.90;;;;;;5082854;28;20039;-59
2023/05/20 08:23:40;;;;;;;3.00;1.30;;;20.00;99.90;;;;;;5071976;28;20036;-60
2023/05/20 08:26:06;;;;;;;2.25;1.23;;;20.20;99.90;;;;;;5071959;28;20044;-60
2023/05/20 08:28:32;;;;;;;8.68;1.20;;;20.40;99.90;;;;;;5072765;28;20036;-60
2023/05/20 08:31:00;;;;;;;4.25;1.30;;;20.60;99.90;;;;;;5075924;28;20466;-60
2023/05/20 08:33:26;;;;;;;3.03;1.13;;;20.80;99.90;;;;;;5071996;28;20107;-60
2023/05/20 08:35:54;;;;;;;4.97;1.40;;;20.60;99.90;;;;;;5076688;28;20140;-60
2023/05/20 08:38:20;;;;;;;2.17;1.48;;;20.40;99.90;;;;;;5081951;28;20111;-59
2023/05/20 08:40:52;;;;;;;3.22;1.60;;;20.80;99.90;;;;;;5083396;28;20143;-60
2023/05/20 08:43:18;;;;;;;5.72;1.30;;;20.50;99.90;;;;;;5079390;28;20089;-60
2023/05/20 08:45:43;;;;;;;3.33;1.30;;;21.00;99.90;;;;;;5093210;28;20486;-60
2023/05/20 08:48:09;;;;;;;4.53;1.40;;;21.00;99.90;;;;;;5093803;28;20040;-60
2023/05/20 08:50:36;;;;;;;2.90;1.17;;;20.70;99.90;;;;;;5093452;28;20043;-60
2023/05/20 08:53:01;;;;;;;5.03;1.65;;;20.50;99.90;;;;;;5093846;28;20115;-60
2023/05/20 08:55:45;;;;;;;2.13;1.30;;;20.70;99.90;;;;;;5093640;28;20111;-60
2023/05/20 08:58:11;;;;;;;5.15;1.80;;;20.60;99.90;;;;;;5093786;28;20040;-60
2023/05/20 09:00:37;;;;;;;2.40;1.23;;;20.90;99.90;;;;;;5093172;28;20150;-60
2023/05/20 09:03:04;;;;;;;5.97;1.50;;;20.70;99.90;;;;;;5093647;28;20452;-60
2023/05/20 09:05:30;;;;;;;2.83;1.30;;;20.90;99.90;;;;;;5093564;28;20043;-60
2023/05/20 09:08:16;;;;;;;5.90;1.50;;;21.30;99.90;;;;;;5093225;28;20032;-60
2023/05/20 09:10:42;;;;;;;5.38;1.50;;;21.40;99.90;;;;;;5125930;27;20043;-60
2023/05/20 09:13:09;;;;;;;4.97;1.80;;;21.70;99.90;;;;;;5093894;28;20462;-60
2023/05/20 09:15:35;;;;;;;3.38;1.48;;;21.30;99.90;;;;;;5093159;28;20040;-60
2023/05/20 09:18:06;;;;;;;3.65;1.30;;;21.40;99.90;;;;;;5092403;28;20121;-60
2023/05/20 09:20:35;;;;;;;3.97;1.30;;;21.50;99.90;;;;;;5093428;28;20036;-60
2023/05/20 09:23:06;;;;;;;3.67;1.60;;;21.90;99.90;;;;;;5093153;28;20482;-60
2023/05/20 09:25:32;;;;;;;4.72;1.90;;;21.40;99.80;;;;;;5092859;28;20043;-58
2023/05/20 09:27:57;;;;;;;3.70;1.85;;;21.60;99.90;;;;;;5092318;28;20489;-59
2023/05/20 09:30:24;;;;;;;3.72;1.60;;;21.80;99.90;;;;;;5092972;28;20036;-59
2023/05/20 09:32:57;;;;;;;3.60;1.60;;;22.20;99.90;;;;;;5093102;28;20382;-59
2023/05/20 09:35:24;;;;;;;6.57;1.55;;;22.00;99.50;;;;;;5093038;28;20040;-58
2023/05/20 09:37:55;;;;;;;5.03;1.60;;;21.70;99.80;;;;;;5091682;28;20417;-58
2023/05/20 09:40:26;;;;;;;5.93;1.65;;;21.90;99.60;;;;;;5093115;28;20040;-58
2023/05/20 09:42:56;;;;;;;2.10;1.45;;;21.60;99.50;;;;;;5081272;28;20479;-59
2023/05/20 09:45:23;;;;;;;2.17;1.30;;;21.70;99.50;;;;;;5090431;28;20075;-58
2023/05/20 09:47:53;;;;;;;7.38;1.90;;;21.90;99.90;;;;;;5092671;28;20043;-59
2023/05/20 09:50:20;;;;;;;4.47;1.45;;;22.10;99.70;;;;;;5092568;28;20044;-59
2023/05/20 09:52:51;;;;;;;4.30;1.20;;;22.00;99.20;;;;;;5092966;28;20052;-59
2023/05/20 09:55:19;;;;;;;2.83;1.75;;;22.20;99.00;;;;;;5091153;28;20044;-58
2023/05/20 09:57:45;;;;;;;;;;;22.20;99.60;;;;;;5093359;28;20082;-59
2023/05/20 10:00:14;;;;;;;8.88;1.75;;;21.90;99.30;;;;;;5092864;28;19955;-59
2023/05/20 10:02:51;;;;;;;3.30;1.55;;;22.20;99.30;;;;;;5079939;28;20036;-59
2023/05/20 10:05:36;;;;;;;7.20;1.60;;;22.60;99.90;;;;;;5084748;28;20036;-59
2023/05/20 10:08:41;;;;;;;4.20;1.38;;;22.70;99.60;;;;;;5090912;28;20047;-58
2023/05/20 10:11:31;;;;;;;3.35;1.42;;;22.90;99.10;;;;;;5091784;28;20043;-58
2023/05/20 10:14:33;;;;;;;2.63;1.50;;;23.00;99.70;;;;;;5092373;28;20036;-59
2023/05/20 10:17:16;;;;;;;2.90;1.95;;;23.10;99.10;;;;;;5092441;28;20047;-58
2023/05/20 10:19:43;;;;;;;3.90;1.40;;;23.20;98.50;;;;;;5092300;28;20439;-58
2023/05/20 10:22:10;;;;;;;5.57;1.65;;;22.70;99.20;;;;;;5092500;28;20363;-58
2023/05/20 10:24:42;;;;;;;6.22;1.77;;;22.70;99.50;;;;;;5092493;28;20063;-59
2023/05/20 10:27:16;;;;;;;2.65;1.80;;;22.50;98.00;;;;;;5092104;28;20047;-58
2023/05/20 10:29:59;;;;;;;2.80;1.80;;;22.40;99.10;;;;;;5092545;28;20040;-59
2023/05/20 10:32:34;;;;;;;3.88;1.90;;;22.20;99.00;;;;;;5092210;28;20040;-58
2023/05/20 10:35:07;;;;;;;2.85;1.60;;;22.10;98.60;;;;;;5092427;28;20468;-58
2023/05/20 10:37:44;;;;;;;4.18;2.05;;;22.00;99.70;;;;;;5092577;28;20115;-59
2023/05/20 10:40:11;;;;;;;4.75;1.83;;;22.20;99.90;;;;;;5092264;28;20111;-59
2023/05/20 10:42:37;;;;;;;6.63;1.80;;;22.70;99.90;;;;;;5082635;28;20043;-59
2023/05/20 10:45:05;;;;;;;3.88;1.80;;;22.60;99.60;;;;;;5087075;28;20489;-59
2023/05/20 10:47:31;;;;;;;5.55;1.75;;;23.00;99.90;;;;;;5091909;28;20470;-59
2023/05/20 10:49:57;;;;;;;7.18;2.00;;;22.90;99.90;;;;;;5092073;28;20036;-59
2023/05/20 10:52:24;;;;;;;2.92;1.48;;;22.20;99.10;;;;;;5091644;28;20044;-59
2023/05/20 10:54:52;;;;;;;5.60;1.70;;;22.00;99.90;;;;;;5091966;28;20068;-58
2023/05/20 10:57:18;;;;;;;;;;;21.30;99.90;;;;;;5092085;28;20070;-58
2023/05/20 10:59:43;;;;;;;6.05;2.15;;;21.20;99.90;;;;;;5091800;28;20313;-59
2023/05/20 11:02:12;;;;;;;4.38;1.92;;;21.20;99.90;;;;;;5091876;28;20090;-59
2023/05/20 11:04:38;;;;;;;5.43;1.67;;;21.10;99.90;;;;;;5091813;28;20119;-58
2023/05/20 11:07:03;;;;;;;6.63;1.95;;;21.20;99.90;;;;;;5091533;28;20115;-58
2023/05/20 11:09:30;;;;;;;4.38;1.60;;;21.60;99.90;;;;;;5091696;28;20054;-58
2023/05/20 11:11:56;;;;;;;3.45;2.00;;;21.90;99.90;;;;;;5091638;28;20048;-59
2023/05/20 11:14:22;;;;;;;3.60;1.80;;;21.70;99.90;;;;;;5091538;28;20051;-59
2023/05/20 11:16:52;;;;;;;9.02;2.03;;;21.60;99.90;;;;;;5091568;28;20036;-59
2023/05/20 11:19:18;;;;;;;14.30;2.88;;;21.70;99.90;;;;;;5091613;28;20047;-60
2023/05/20 11:21:45;;;;;;;3.90;1.83;;;21.50;99.90;;;;;;5091523;28;20028;-59
2023/05/20 11:24:11;;;;;;;4.88;1.90;;;21.70;99.90;;;;;;5095196;28;20074;-60
2023/05/20 11:26:37;;;;;;;5.15;2.00;;;21.30;99.90;;;;;;5095656;28;20039;-60
2023/05/20 11:29:03;;;;;;;4.05;1.90;;;21.50;99.90;;;;;;5095238;28;20043;-59
2023/05/20 11:31:30;;;;;;;7.88;2.05;;;21.70;99.90;;;;;;5095322;28;20040;-60
2023/05/20 11:34:03;;;;;;;6.93;2.20;;;21.70;99.90;;;;;;5095261;28;20490;-59
2023/05/20 11:36:29;;;;;;;6.18;2.20;;;21.80;99.90;;;;;;5095408;28;20040;-59
2023/05/20 11:38:57;;;;;;;3.17;1.70;;;21.70;99.90;;;;;;5095244;28;20093;-59
2023/05/20 11:41:27;;;;;;;4.82;2.40;;;22.00;99.90;;;;;;5095116;28;20122;-60
2023/05/20 11:43:59;;;;;;;8.23;2.63;;;22.00;99.90;;;;;;5080711;28;20413;-59
2023/05/20 11:46:26;;;;;;;6.80;2.97;;;21.80;99.90;;;;;;5095441;28;20456;-59
2023/05/20 11:48:55;;;;;;;3.90;2.20;;;21.60;99.90;;;;;;5095246;28;20097;-60
2023/05/20 11:51:28;;;;;;;5.45;1.77;;;21.60;99.90;;;;;;5094879;28;20048;-59
2023/05/20 11:54:01;;;;;;;6.80;2.20;;;21.90;99.90;;;;;;5094914;28;20036;-59
2023/05/20 11:56:36;;;;;;;6.20;2.00;;;21.60;99.90;;;;;;5094883;28;20052;-59
2023/05/20 11:59:03;;;;;;;8.18;2.17;;;22.10;99.90;;;;;;5094789;28;20036;-60
2023/05/20 12:01:32;;;;;;;5.28;2.60;;;22.10;99.90;;;;;;5094578;28;20048;-59
2023/05/20 12:03:58;;;;;;;9.75;2.47;;;22.20;99.90;;;;;;5094727;28;20052;-60
2023/05/20 12:06:24;;;;;;;5.32;2.17;;;22.20;99.90;;;;;;5094806;28;20036;-59
2023/05/20 12:08:50;;;;;;;3.55;2.20;;;22.40;99.90;;;;;;5093672;28;20052;-59
2023/05/20 12:11:15;;;;;;;3.35;2.20;;;22.10;99.90;;;;;;5094606;28;20083;-60
2023/05/20 12:13:41;;;;;;;9.00;2.55;;;21.90;99.90;;;;;;5094901;28;20357;-59
2023/05/20 12:16:07;;;;;;;3.78;2.00;;;22.30;99.90;;;;;;5094376;28;20537;-60
2023/05/20 12:18:32;;;;;;;7.18;2.28;;;22.20;99.90;;;;;;5094616;28;20400;-59
2023/05/20 12:20:59;;;;;;;6.90;2.70;;;22.00;99.90;;;;;;5094277;28;20036;-60
2023/05/20 12:23:25;;;;;;;4.72;2.30;;;21.90;99.90;;;;;;5094226;28;20078;-60
2023/05/20 12:25:51;;;;;;;5.32;2.40;;;22.00;99.90;;;;;;5094326;28;20497;-60
2023/05/20 12:28:16;;;;;;;3.85;2.40;;;21.80;99.90;;;;;;5093116;28;20158;-60
2023/05/20 12:30:42;;;;;;;7.13;2.42;;;21.70;99.90;;;;;;5094412;28;20040;-60
2023/05/20 12:33:08;;;;;;;4.25;2.65;;;21.60;99.90;;;;;;5093782;28;20471;-60
2023/05/20 12:35:40;;;;;;;8.07;2.47;;;21.60;99.90;;;;;;5093734;28;20047;-59
2023/05/20 12:38:06;;;;;;;5.07;2.45;;;21.80;99.90;;;;;;5093803;28;20043;-59
2023/05/20 12:40:33;;;;;;;7.15;3.25;;;21.80;99.90;;;;;;5094259;28;20137;-59
2023/05/20 12:43:00;;;;;;;8.73;2.63;;;22.20;99.90;;;;;;5081589;28;20036;-60
2023/05/20 12:45:26;;;;;;;7.07;2.83;;;22.30;99.90;;;;;;5093938;28;20047;-59